Terminal Aerodrome Forecast
Issued by NWS

Home | Current Version | Previous Version | Text Only | Print | Product List | Glossary On
Versions: 1 2 3 4 5 6 7 8 9 10 11 12 13 14 15 16 17 18 19 20 21
000
FTUS43 KMQT 201300 AAA
TAFSAW
TAF AMD
KSAW 201302Z 2013/2112 19009KT 4SM BR OVC100
      TEMPO 2013/2014 2SM BR BKN002
     FM201500 21007KT P6SM BKN100
     FM201800 28005KT P6SM SCT100
     FM202100 04005KT P6SM SKC
     FM210600 VRB03KT 2SM BR SCT005
      AMD LTD TO CLD VIS AND WIND 2102/2110=

USA.gov is the U.S. government's official web portal to all federal, state and local government web resources and services.